首页
METAR-TAF:

METAR-TAF

机场 :

安纳巴, 阿尔及利亚

纬度: 36-50N, 经度: 007-49E, 海拔: 4米

当前天气观测

该预报发布于11分钟前的00:30 UTC
风速3节,风向西南
温度 21°C
湿度 73%
气压 1020 hPa
能见度10公里或以上
少量云层高于2300英尺
多云层高于3300英尺

METAR: DABB 160030Z 22003KT 9999 FEW023 BKN033 21/16 Q1020

时间: 01:41 (00:41 UTC)

预报

该预报发布于1小时和41分钟前的23:00 UTC
预报有效从16日的 00点(UTC)到 16日的 24点(UTC)
风速8节,风向西南
能见度10公里或以上
散云层高于2300英尺
散云层高于3300英尺
几率 30% :
短暂存在
从 16日的 00点(UTC)到 16日的 06点(UTC)
能見度: 2000
散云层高于1000英尺
轻雾

TAF: DABB 152300Z 1600/1624 22008KT 9999 SCT023 SCT033 PROB30 TEMPO 1600/1606 2000 BR SCT010

超过4000个机场的气象观测和天气预报(METAR&TAF报告)。

可查询的气象台以黄色和红色小点在地图上表示。

将鼠标移到小点上方,可查看气象台名称。

然后点击查看天气观测和预报。

如需切换地图:点击带黑十字的绿色按钮放大地图;点击带横线的绿色按钮缩小地图;或者点击绿色箭头查看邻近地区的地图。


METAR-TAF: